Time;durP1;ratioP1;P1;durP2;ratioP2;P2;SDS_P1;SDS_P2;PMS_P1;PMS_P2;Temp;Humidity;BMP_temperature;BMP_pressure;BME280_temperature;BME280_humidity;BME280_pressure;Samples;Min_cycle;Max_cycle;Signal;HPM_P1;HPM_P2
2023/10/31 00:01:31;;;;;;;11.48;10.27;;;12.30;99.90;;;-141.84;100.00;119224.81;4965079;28;20746;-63
2023/10/31 00:03:59;;;;;;;12.05;10.82;;;12.30;99.90;;;-141.84;100.00;119224.81;4965374;28;20236;-62
2023/10/31 00:06:29;;;;;;;11.40;10.20;;;12.40;99.90;;;-141.84;100.00;119224.81;4965663;28;20295;-63
2023/10/31 00:08:57;;;;;;;12.40;10.93;;;12.30;99.90;;;-141.84;100.00;119224.81;4976545;28;20223;-62
2023/10/31 00:11:26;;;;;;;11.10;10.05;;;12.30;99.90;;;-141.84;100.00;119224.81;4985743;28;20748;-62
2023/10/31 00:13:54;;;;;;;12.00;10.80;;;12.30;99.90;;;-141.84;100.00;119224.81;4985650;28;20243;-63
2023/10/31 00:16:22;;;;;;;13.48;10.43;;;12.20;99.90;;;-141.84;100.00;119224.81;4985544;28;20729;-63
2023/10/31 00:18:51;;;;;;;12.65;11.32;;;12.30;99.90;;;-141.84;100.00;119224.81;4985749;28;20222;-63
2023/10/31 00:21:20;;;;;;;10.85;9.75;;;12.30;99.90;;;-141.84;100.00;119224.81;4990549;28;20280;-63
2023/10/31 00:23:50;;;;;;;11.60;10.50;;;12.30;99.90;;;-141.84;100.00;119224.81;5005261;28;20671;-62
2023/10/31 00:26:18;;;;;;;13.52;10.82;;;12.30;99.90;;;-141.84;100.00;119224.81;5005338;28;20226;-63
2023/10/31 00:28:46;;;;;;;13.50;10.77;;;12.30;99.90;;;-141.84;100.00;119224.81;5005488;28;20778;-63
2023/10/31 00:31:15;;;;;;;15.95;14.45;;;12.30;99.90;;;-141.84;100.00;119224.81;4997328;28;24405;-63
2023/10/31 00:33:43;;;;;;;15.18;13.65;;;12.30;99.90;;;-141.84;100.00;119224.81;5005125;28;20641;-63
2023/10/31 00:36:11;;;;;;;16.00;14.50;;;12.30;99.90;;;-141.84;100.00;119224.81;5005112;28;20297;-62
2023/10/31 00:38:39;;;;;;;17.00;15.30;;;12.30;99.90;;;-141.84;100.00;119224.81;5004920;28;20258;-63
2023/10/31 00:41:09;;;;;;;14.43;13.00;;;12.30;99.90;;;-141.84;100.00;119224.81;4995409;28;20309;-61
2023/10/31 00:43:37;;;;;;;15.02;13.30;;;12.30;99.90;;;-141.84;100.00;119224.81;4986193;28;20326;-63
2023/10/31 00:46:05;;;;;;;14.63;13.23;;;12.30;99.90;;;-141.84;100.00;119224.81;4985207;28;20723;-63
2023/10/31 00:48:36;;;;;;;14.05;12.52;;;12.30;99.90;;;-141.84;100.00;119224.81;4985485;28;20203;-62
2023/10/31 00:51:05;;;;;;;13.68;12.27;;;12.20;99.90;;;-141.84;100.00;119224.81;4987173;28;20309;-64
2023/10/31 00:53:33;;;;;;;14.27;12.85;;;12.30;99.90;;;-141.84;100.00;119224.81;4985174;28;20758;-63
2023/10/31 00:56:02;;;;;;;14.85;13.35;;;12.30;99.90;;;-141.84;100.00;119224.81;4985483;28;20551;-64
2023/10/31 00:58:32;;;;;;;15.52;13.18;;;12.30;99.90;;;-141.84;100.00;119224.81;4983285;28;20270;-64
2023/10/31 01:01:00;;;;;;;17.13;13.98;;;12.20;99.90;;;-141.84;100.00;119224.81;4977476;28;20227;-62
2023/10/31 01:03:29;;;;;;;16.33;14.20;;;12.20;99.90;;;-141.84;100.00;119224.81;4985345;28;20303;-63
2023/10/31 01:05:57;;;;;;;15.68;14.10;;;12.20;99.90;;;-141.84;100.00;119224.81;4984685;28;20737;-63
2023/10/31 01:08:26;;;;;;;16.17;13.85;;;12.20;99.90;;;-141.84;100.00;119224.81;4984613;28;20329;-63
2023/10/31 01:10:54;;;;;;;15.80;14.10;;;12.20;99.90;;;-141.84;100.00;119224.81;4982283;28;20242;-63
2023/10/31 01:13:23;;;;;;;17.30;15.50;;;12.10;99.90;;;-141.84;100.00;119224.81;4984503;28;20234;-64
2023/10/31 01:15:52;;;;;;;17.30;15.50;;;12.20;99.90;;;-141.84;100.00;119224.81;4984664;28;20679;-64
2023/10/31 01:18:21;;;;;;;18.63;15.57;;;12.10;99.90;;;-141.84;100.00;119224.81;4984472;28;20679;-63
2023/10/31 01:20:49;;;;;;;17.58;15.77;;;12.10;99.90;;;-141.84;100.00;119224.81;4984061;28;20219;-64
2023/10/31 01:23:17;;;;;;;19.00;16.00;;;12.10;99.90;;;-141.84;100.00;119224.81;4977004;28;20322;-62
2023/10/31 01:25:45;;;;;;;18.45;16.55;;;12.10;99.90;;;-141.84;100.00;119224.81;4984663;28;20274;-63
2023/10/31 01:28:13;;;;;;;20.27;17.50;;;12.20;99.90;;;-141.84;100.00;119224.81;4984464;28;20227;-64
2023/10/31 01:30:41;;;;;;;19.45;17.45;;;12.10;99.90;;;-141.84;100.00;119224.81;4984397;28;20207;-64
2023/10/31 01:33:11;;;;;;;20.15;18.02;;;12.10;99.90;;;-141.84;100.00;119224.81;4977230;28;20286;-63
2023/10/31 01:35:39;;;;;;;21.63;19.35;;;12.10;99.90;;;-141.84;100.00;119224.81;4983942;28;20647;-63
2023/10/31 01:38:08;;;;;;;20.92;18.73;;;12.10;99.90;;;-141.84;100.00;119224.81;4983754;28;20785;-63
2023/10/31 01:40:36;;;;;;;21.33;19.00;;;12.10;99.90;;;-141.84;100.00;119224.81;4983964;28;20231;-63
2023/10/31 01:43:04;;;;;;;20.92;17.90;;;12.20;99.90;;;-141.84;100.00;119224.81;4975862;28;20231;-63
2023/10/31 01:45:32;;;;;;;17.95;16.17;;;12.10;99.90;;;-141.84;100.00;119224.81;4984230;28;20246;-64
2023/10/31 01:48:00;;;;;;;24.25;19.60;;;12.10;99.90;;;-141.84;100.00;119224.81;4984032;28;20318;-63
2023/10/31 01:50:31;;;;;;;22.25;19.83;;;12.20;99.90;;;-141.84;100.00;119224.81;4981320;28;20313;-63
2023/10/31 01:52:59;;;;;;;23.30;18.95;;;12.20;99.90;;;-141.84;100.00;119224.81;4975269;28;20231;-63
2023/10/31 01:55:29;;;;;;;21.65;18.70;;;12.20;99.90;;;-141.84;100.00;119224.81;4983341;28;20227;-63
2023/10/31 01:57:57;;;;;;;21.35;18.48;;;12.20;99.90;;;-141.84;100.00;119224.81;4983966;28;20203;-63
2023/10/31 02:00:26;;;;;;;22.88;19.05;;;12.20;99.90;;;-141.84;100.00;119224.81;4984123;28;20794;-62
2023/10/31 02:02:55;;;;;;;20.52;18.33;;;12.20;99.90;;;-141.84;100.00;119224.81;4981301;28;20515;-62
2023/10/31 02:05:24;;;;;;;23.35;20.88;;;12.30;99.90;;;-141.84;100.00;119224.81;4983750;28;20668;-63
2023/10/31 02:07:53;;;;;;;24.33;19.98;;;12.20;99.90;;;-141.84;100.00;119224.81;4983364;28;20231;-62
2023/10/31 02:10:21;;;;;;;20.15;17.98;;;12.20;99.90;;;-141.84;100.00;119224.81;4983435;28;20660;-63
2023/10/31 02:12:50;;;;;;;19.30;16.98;;;12.20;99.90;;;-141.84;100.00;119224.81;4983941;28;20273;-64
2023/10/31 02:15:18;;;;;;;19.23;16.67;;;12.20;99.90;;;-141.84;100.00;119224.81;4978592;28;20247;-64
2023/10/31 02:17:46;;;;;;;19.45;16.10;;;12.20;99.90;;;-141.84;100.00;119224.81;4983512;28;20242;-63
2023/10/31 02:20:14;;;;;;;20.98;17.58;;;12.20;99.90;;;-141.84;100.00;119224.81;4983323;28;20231;-63
2023/10/31 02:22:44;;;;;;;20.67;17.77;;;12.20;99.90;;;-141.84;100.00;119224.81;4983554;28;20242;-63
2023/10/31 02:25:18;;;;;;;18.13;16.15;;;12.20;99.90;;;-141.84;100.00;119224.81;4975441;28;20301;-63
2023/10/31 02:27:47;;;;;;;23.40;17.73;;;12.20;99.90;;;-141.84;100.00;119224.81;4983717;28;20682;-63
2023/10/31 02:30:15;;;;;;;20.13;17.50;;;12.20;99.90;;;-141.84;100.00;119224.81;4983779;28;20207;-64
2023/10/31 02:32:44;;;;;;;22.27;18.45;;;12.20;99.90;;;-141.84;100.00;119224.81;4983193;28;20726;-64
2023/10/31 02:35:13;;;;;;;24.58;19.27;;;12.20;99.90;;;-141.84;100.00;119224.81;4975281;28;20650;-64
2023/10/31 02:37:43;;;;;;;26.25;20.15;;;12.20;99.90;;;-141.84;100.00;119224.81;4983899;28;20227;-63
2023/10/31 02:40:13;;;;;;;26.27;19.77;;;12.20;99.90;;;-141.84;100.00;119224.81;4983178;28;20273;-63
2023/10/31 02:42:41;;;;;;;25.13;19.35;;;12.20;99.90;;;-141.84;100.00;119224.81;4983863;28;20215;-63
2023/10/31 02:45:10;;;;;;;22.70;19.30;;;12.20;99.90;;;-141.84;100.00;119224.81;4976279;28;20219;-63
2023/10/31 02:47:38;;;;;;;22.05;19.70;;;12.20;99.90;;;-141.84;100.00;119224.81;4983348;28;20278;-63
2023/10/31 02:50:08;;;;;;;23.08;20.45;;;12.30;99.90;;;-141.84;100.00;119224.81;4982586;28;20646;-63
2023/10/31 02:52:37;;;;;;;20.52;18.17;;;12.20;99.90;;;-141.84;100.00;119224.81;4983043;28;20235;-63
2023/10/31 02:55:07;;;;;;;19.13;17.15;;;12.30;99.90;;;-141.84;100.00;119224.81;4975423;28;20230;-63
2023/10/31 02:57:36;;;;;;;19.73;17.20;;;12.30;99.90;;;-141.84;100.00;119224.81;4983974;28;20294;-62
2023/10/31 03:00:05;;;;;;;19.55;17.42;;;12.30;99.90;;;-141.84;100.00;119224.81;4963361;28;20694;-63
2023/10/31 03:02:33;;;;;;;17.50;15.60;;;12.30;99.90;;;-141.84;100.00;119224.81;4978910;28;20329;-63
2023/10/31 03:05:01;;;;;;;16.58;14.90;;;12.30;99.90;;;-141.84;100.00;119224.81;4975391;28;20237;-64
2023/10/31 03:07:30;;;;;;;14.82;13.32;;;12.30;99.90;;;-141.84;100.00;119224.81;4982980;28;20227;-63
2023/10/31 03:09:58;;;;;;;14.43;13.02;;;12.30;99.90;;;-141.84;100.00;119224.81;4982993;28;20214;-63
2023/10/31 03:12:28;;;;;;;15.65;14.05;;;12.30;99.90;;;-141.84;100.00;119224.81;4983252;28;20219;-62
2023/10/31 03:14:57;;;;;;;17.02;13.50;;;12.30;99.90;;;-141.84;100.00;119224.81;4975842;28;20274;-63
2023/10/31 03:17:27;;;;;;;15.30;13.07;;;12.20;99.90;;;-141.84;100.00;119224.81;4982637;28;20235;-64
2023/10/31 03:19:56;;;;;;;14.30;12.55;;;12.20;99.90;;;-141.84;100.00;119224.81;4982474;28;20719;-64
2023/10/31 03:22:24;;;;;;;13.30;11.80;;;12.20;99.90;;;-141.84;100.00;119224.81;4984713;28;20233;-63
2023/10/31 03:24:52;;;;;;;13.57;11.15;;;12.20;99.90;;;-141.84;100.00;119224.81;4986779;28;20298;-63
2023/10/31 03:27:21;;;;;;;13.23;11.68;;;12.20;99.90;;;-141.84;100.00;119224.81;4984588;28;20579;-64
2023/10/31 03:29:50;;;;;;;14.02;11.20;;;12.20;99.90;;;-141.84;100.00;119224.81;4986542;28;20237;-64
2023/10/31 03:32:18;;;;;;;13.80;12.20;;;12.20;99.90;;;-141.84;100.00;119224.81;4986897;28;20294;-63
2023/10/31 03:34:47;;;;;;;14.38;11.32;;;12.20;99.90;;;-141.84;100.00;119224.81;4986244;28;20720;-63
2023/10/31 03:37:15;;;;;;;12.45;11.15;;;12.20;99.90;;;-141.84;100.00;119224.81;4978188;28;20270;-63
2023/10/31 03:39:43;;;;;;;12.18;10.88;;;12.20;99.90;;;-141.84;100.00;119224.81;4986687;28;20230;-64
2023/10/31 03:42:11;;;;;;;12.82;10.68;;;12.20;99.90;;;-141.84;100.00;119224.81;4985813;28;20207;-63
2023/10/31 03:44:39;;;;;;;12.40;11.10;;;12.20;99.90;;;-141.84;100.00;119224.81;4986384;28;20785;-63
2023/10/31 03:47:09;;;;;;;13.10;10.85;;;12.20;99.90;;;-141.84;100.00;119224.81;4979185;28;20241;-63
2023/10/31 03:49:40;;;;;;;12.45;11.15;;;12.20;99.90;;;-141.84;100.00;119224.81;4986082;28;20246;-64
2023/10/31 03:52:09;;;;;;;13.20;11.77;;;12.30;99.90;;;-141.84;100.00;119224.81;4979588;28;20663;-64
2023/10/31 03:54:37;;;;;;;12.75;11.45;;;12.20;99.90;;;-141.84;100.00;119224.81;4986711;28;20302;-63
2023/10/31 03:57:06;;;;;;;12.75;11.45;;;12.20;99.90;;;-141.84;100.00;119224.81;4959384;28;20228;-64
2023/10/31 03:59:34;;;;;;;13.33;11.73;;;12.30;99.90;;;-141.84;100.00;119224.81;4982081;28;20753;-63
2023/10/31 04:02:02;;;;;;;12.95;11.63;;;12.20;99.90;;;-141.84;100.00;119224.81;4986463;28;20322;-63
2023/10/31 04:04:31;;;;;;;13.02;11.52;;;12.20;99.90;;;-141.84;100.00;119224.81;4976946;28;20230;-64
2023/10/31 04:06:59;;;;;;;12.23;10.93;;;12.20;99.90;;;-141.84;100.00;119224.81;4978994;28;20267;-64
2023/10/31 04:09:28;;;;;;;12.73;11.43;;;12.20;99.90;;;-141.84;100.00;119224.81;4986197;28;20203;-63
2023/10/31 04:11:56;;;;;;;13.13;11.77;;;12.20;99.90;;;-141.84;100.00;119224.81;4978198;28;20227;-63
2023/10/31 04:14:24;;;;;;;12.15;10.70;;;12.30;99.90;;;-141.84;100.00;119224.81;4981074;28;20238;-64
2023/10/31 04:16:52;;;;;;;12.97;10.73;;;12.30;99.90;;;-141.84;100.00;119224.81;4985993;28;20254;-63
2023/10/31 04:19:20;;;;;;;13.20;10.18;;;12.30;99.90;;;-141.84;100.00;119224.81;4983599;28;20290;-63
2023/10/31 04:21:50;;;;;;;11.30;10.10;;;12.30;99.90;;;-141.84;100.00;119224.81;4985407;28;20706;-63
2023/10/31 04:24:18;;;;;;;9.68;8.32;;;12.30;99.90;;;-141.84;100.00;119224.81;4986564;28;20289;-63
2023/10/31 04:26:46;;;;;;;11.30;7.53;;;12.30;99.90;;;-141.84;100.00;119224.81;4985449;28;20290;-64
2023/10/31 04:29:14;;;;;;;6.85;6.13;;;12.30;99.90;;;-141.84;100.00;119224.81;4978285;28;20267;-64
2023/10/31 04:31:43;;;;;;;6.00;4.90;;;12.40;99.90;;;-141.84;100.00;119224.81;4985300;28;20722;-64
2023/10/31 04:34:12;;;;;;;5.18;4.57;;;12.40;99.90;;;-141.84;100.00;119224.81;4985677;28;20230;-63
2023/10/31 04:36:40;;;;;;;5.35;4.85;;;12.50;99.90;;;-141.84;100.00;119224.81;4985325;28;20293;-63
2023/10/31 04:39:10;;;;;;;4.80;4.40;;;12.50;99.90;;;-141.84;100.00;119224.81;4978044;28;20298;-64
2023/10/31 04:41:38;;;;;;;4.53;4.13;;;12.50;99.90;;;-141.84;100.00;119224.81;4984863;28;20234;-63
2023/10/31 04:44:07;;;;;;;5.18;4.10;;;12.40;99.90;;;-141.84;100.00;119224.81;4985230;28;20258;-64
2023/10/31 04:46:35;;;;;;;4.35;3.72;;;12.50;99.90;;;-141.84;100.00;119224.81;4985369;28;20227;-63
2023/10/31 04:49:03;;;;;;;5.30;3.70;;;12.50;99.90;;;-141.84;100.00;119224.81;4977711;28;20227;-64
2023/10/31 04:51:35;;;;;;;3.75;3.45;;;12.50;99.90;;;-141.84;100.00;119224.81;4985413;28;20671;-64
2023/10/31 04:54:03;;;;;;;3.70;3.40;;;12.40;99.90;;;-141.84;100.00;119224.81;4985049;28;20282;-63
2023/10/31 04:56:34;;;;;;;3.75;3.33;;;12.50;99.90;;;-141.84;100.00;119224.81;4984623;28;20289;-63
2023/10/31 04:59:03;;;;;;;3.55;3.10;;;12.40;99.90;;;-141.84;100.00;119224.81;4977944;28;20585;-63
2023/10/31 05:01:31;;;;;;;3.40;3.10;;;12.50;99.90;;;-141.84;100.00;119224.81;4985270;28;20235;-63
2023/10/31 05:03:59;;;;;;;3.50;3.20;;;12.50;99.90;;;-141.84;100.00;119224.81;4984932;28;20647;-63
2023/10/31 05:06:40;;;;;;;3.28;3.00;;;12.40;99.90;;;-141.84;100.00;119224.81;4985152;28;20690;-62
2023/10/31 05:09:10;;;;;;;4.45;3.53;;;12.50;99.90;;;-141.84;100.00;119224.81;4977923;28;20207;-64
2023/10/31 05:11:40;;;;;;;3.47;3.13;;;12.50;99.90;;;-141.84;100.00;119224.81;4979437;28;20223;-63
2023/10/31 05:14:10;;;;;;;2.50;2.30;;;12.50;99.90;;;-141.84;100.00;119224.81;4977563;28;20259;-63
2023/10/31 05:16:42;;;;;;;3.13;2.25;;;12.50;99.90;;;-141.84;100.00;119224.81;4985027;28;20231;-63
2023/10/31 05:19:11;;;;;;;2.47;2.00;;;12.50;99.90;;;-141.84;100.00;119224.81;4977754;28;20220;-62
2023/10/31 05:21:39;;;;;;;2.10;1.90;;;12.50;99.90;;;-141.84;100.00;119224.81;4984483;28;20747;-64
2023/10/31 05:24:09;;;;;;;2.08;1.92;;;12.60;99.90;;;-141.84;100.00;119224.81;4984776;28;20693;-62
2023/10/31 05:26:37;;;;;;;2.70;2.05;;;12.50;99.90;;;-141.84;100.00;119224.81;4984082;28;20318;-63
2023/10/31 05:29:06;;;;;;;2.30;2.10;;;12.60;99.90;;;-141.84;100.00;119224.81;4977177;28;20241;-64
2023/10/31 05:31:35;;;;;;;2.53;2.03;;;12.60;99.90;;;-141.84;100.00;119224.81;4984292;28;20231;-62
2023/10/31 05:34:04;;;;;;;1.90;1.80;;;12.60;99.90;;;-141.84;100.00;119224.81;4984606;28;20254;-63
2023/10/31 05:36:32;;;;;;;2.35;1.80;;;12.60;99.90;;;-141.84;100.00;119224.81;4984724;28;20250;-62
2023/10/31 05:39:00;;;;;;;2.10;1.90;;;12.50;99.90;;;-141.84;100.00;117622.84;4976389;28;20309;-63
2023/10/31 05:41:29;;;;;;;1.77;1.60;;;12.60;99.90;;;-141.84;100.00;113093.19;4983880;28;20703;-62
2023/10/31 05:43:57;;;;;;;1.90;1.80;;;12.60;99.90;;;-141.84;100.00;110164.91;4983989;28;20293;-62
2023/10/31 05:46:27;;;;;;;1.70;1.60;;;12.60;99.90;;;-141.84;100.00;106972.81;4984569;28;20234;-62
2023/10/31 05:48:55;;;;;;;1.73;1.60;;;12.60;99.90;;;-141.84;100.00;107238.72;4977150;28;20742;-63
2023/10/31 05:51:25;;;;;;;4.03;1.70;;;12.60;99.90;;;-141.84;100.00;108302.56;4984376;28;20204;-62
2023/10/31 05:53:53;;;;;;;1.60;1.50;;;12.60;99.90;;;-141.84;100.00;108834.56;4984334;28;20241;-63
2023/10/31 05:56:22;;;;;;;1.70;1.60;;;12.50;99.90;;;-141.84;100.00;110963.31;4983541;28;20613;-62
2023/10/31 05:58:50;;;;;;;1.60;1.50;;;12.50;99.90;;;-141.84;100.00;106175.19;4984232;28;20238;-62
2023/10/31 06:01:18;;;;;;;1.55;1.33;;;12.40;99.90;;;-141.84;100.00;103783.25;4977347;28;20264;-63
2023/10/31 06:03:48;;;;;;;1.60;1.50;;;12.50;99.90;;;-141.84;100.00;100330.69;4984007;28;20210;-63
2023/10/31 06:06:16;;;;;;;1.47;1.37;;;12.50;99.90;;;-141.84;100.00;101127.16;4984092;28;20584;-63
2023/10/31 06:08:45;;;;;;;1.30;1.20;;;12.40;99.90;;;-141.84;100.00;95820.25;4983885;28;20744;-62
2023/10/31 06:11:13;;;;;;;1.33;1.23;;;12.50;99.90;;;-141.84;100.00;91579.72;4976426;28;20687;-63
2023/10/31 06:13:41;;;;;;;1.50;1.40;;;12.50;99.90;;;-141.84;100.00;94229.53;4983431;28;20291;-63
2023/10/31 06:16:10;;;;;;;1.90;1.70;;;12.50;99.90;;;-141.84;100.00;97942.19;4984154;28;20227;-63
2023/10/31 06:18:40;;;;;;;1.58;1.30;;;12.50;99.90;;;-141.84;100.00;98738.19;4984861;28;20211;-63
2023/10/31 06:21:10;;;;;;;2.33;1.60;;;12.50;99.90;;;-141.84;100.00;99003.56;4976571;28;20219;-64
2023/10/31 06:23:38;;;;;;;1.47;1.37;;;12.40;99.90;;;-141.84;100.00;98207.50;4983474;28;20233;-64
2023/10/31 06:26:06;;;;;;;1.40;1.30;;;12.40;99.90;;;-141.84;100.00;89725.88;4983536;28;20313;-65
2023/10/31 06:28:36;;;;;;;1.30;1.20;;;12.40;99.90;;;-141.84;100.00;89990.66;4983753;28;20234;-63
2023/10/31 06:31:13;;;;;;;2.35;1.50;;;12.40;99.90;;;-141.84;100.00;95555.09;4976029;28;20595;-62
2023/10/31 06:33:41;;;;;;;1.30;1.20;;;12.30;99.90;;;-141.84;100.00;97146.31;4978986;28;20310;-63
2023/10/31 06:36:11;;;;;;;1.67;1.58;;;12.20;99.90;;;-141.84;100.00;87872.91;4984020;28;20652;-62
2023/10/31 06:38:39;;;;;;;3.30;1.70;;;12.20;99.90;;;-141.84;100.00;95555.09;4983313;28;20309;-63
2023/10/31 06:41:08;;;;;;;3.37;1.50;;;12.10;99.90;;;-141.84;100.00;79941.19;4963557;28;20227;-64
2023/10/31 06:43:36;;;;;;;1.80;1.40;;;12.10;99.90;;;-141.84;100.00;77564.72;4963541;28;20232;-64
2023/10/31 06:46:05;;;;;;;1.33;1.20;;;12.10;99.90;;;-141.84;100.00;75717.34;4964113;28;20533;-63
2023/10/31 06:48:34;;;;;;;2.72;1.80;;;12.20;99.90;;;-141.84;100.00;75453.50;4964453;28;20212;-64
2023/10/31 06:51:02;;;;;;;2.60;1.47;;;12.20;99.90;;;-141.84;100.00;60180.38;4957157;28;20326;-63
2023/10/31 06:53:31;;;;;;;1.53;1.43;;;12.30;99.90;;;-141.84;100.00;72288.75;4964011;28;20266;-62
2023/10/31 06:55:59;;;;;;;1.52;1.35;;;12.30;99.90;;;-141.84;100.00;53615.19;4965729;28;20323;-63
2023/10/31 06:58:28;;;;;;;1.50;1.40;;;12.30;99.90;;;-141.84;100.00;63598.59;4967604;28;20232;-64
2023/10/31 07:00:59;;;;;;;1.10;1.00;;;12.30;99.90;;;-141.84;100.00;47322.81;4960719;28;20294;-62
2023/10/31 07:03:27;;;;;;;1.45;1.35;;;12.40;99.90;;;-141.84;100.00;41825.19;4968324;28;20259;-63
2023/10/31 07:05:56;;;;;;;1.63;1.30;;;12.40;99.90;;;-141.84;100.00;39256.94;4967763;28;20232;-63
2023/10/31 07:08:25;;;;;;;1.40;1.30;;;12.40;99.90;;;-141.84;100.00;38732.06;4967614;28;20235;-63
2023/10/31 07:10:54;;;;;;;1.33;1.23;;;12.50;99.90;;;-141.84;100.00;28825.56;4967781;28;20608;-62
2023/10/31 07:13:22;;;;;;;1.60;1.50;;;12.50;99.90;;;-141.84;100.00;35767.88;4965221;28;20236;-64
2023/10/31 07:15:50;;;;;;;2.87;2.47;;;12.50;99.90;;;-141.84;100.00;32638.75;4967501;28;20557;-64
2023/10/31 07:18:19;;;;;;;1.48;1.30;;;12.50;99.90;;;-141.84;100.00;35625.03;4968106;28;20239;-64
2023/10/31 07:20:47;;;;;;;1.58;0.95;;;12.50;99.90;;;-141.84;100.00;24098.38;4972586;28;20259;-64
2023/10/31 07:23:15;;;;;;;1.40;1.30;;;12.50;99.90;;;-141.84;99.75;21517.31;4980097;28;20695;-64
2023/10/31 07:25:45;;;;;;;1.98;1.50;;;12.50;99.90;;;-141.84;99.24;21354.66;4986760;28;20667;-63
2023/10/31 07:28:14;;;;;;;1.40;1.30;;;12.50;99.90;;;-141.84;100.00;22279.88;4976650;28;20231;-63
2023/10/31 07:30:42;;;;;;;1.65;1.30;;;12.50;99.90;;;-141.84;100.00;22037.88;4967993;28;20319;-64
2023/10/31 07:33:11;;;;;;;1.20;1.05;;;12.60;99.90;;;-141.84;97.08;20183.75;4960824;28;20215;-64
2023/10/31 07:35:39;;;;;;;1.40;1.30;;;12.60;99.90;;;-141.84;98.23;20541.50;4967451;28;20802;-64
2023/10/31 07:38:07;;;;;;;1.50;1.40;;;12.60;99.90;;;-141.84;100.00;21850.78;4967274;28;20331;-64
2023/10/31 07:40:36;;;;;;;1.20;1.10;;;12.60;99.90;;;-141.84;94.74;19738.66;4967159;28;20286;-64
2023/10/31 07:43:04;;;;;;;0.90;0.90;;;12.70;99.90;;;-141.84;92.51;19511.03;4959573;28;20290;-63
2023/10/31 07:45:34;;;;;;;1.15;1.05;;;12.90;99.90;;;-141.84;93.23;19559.81;4967908;28;20307;-64
2023/10/31 07:48:03;;;;;;;1.23;1.10;;;13.00;99.90;;;-141.84;91.19;19482.56;4967338;28;20259;-64
2023/10/31 07:50:32;;;;;;;2.17;1.80;;;13.10;99.90;;;-141.84;89.97;19383.00;4967314;28;20278;-64
2023/10/31 07:53:00;;;;;;;1.55;1.40;;;13.10;99.90;;;-141.84;89.68;19378.94;4959914;28;20323;-65
2023/10/31 07:55:28;;;;;;;1.40;1.00;;;13.00;99.90;;;-141.84;92.40;19448.03;4967039;28;20327;-64
2023/10/31 07:57:56;;;;;;;1.40;1.02;;;12.90;99.90;;;-141.84;92.35;19452.09;4967191;28;20227;-64
2023/10/31 08:00:24;;;;;;;3.95;1.45;;;12.90;99.90;;;-141.84;91.64;19462.25;4966948;28;20311;-64
2023/10/31 08:02:54;;;;;;;1.33;1.15;;;12.90;99.90;;;-141.84;90.85;19433.81;4966544;28;20294;-63
2023/10/31 08:05:24;;;;;;;1.38;1.10;;;12.90;99.90;;;-141.84;90.12;19423.66;4967094;28;20286;-64
2023/10/31 08:07:52;;;;;;;2.05;1.30;;;13.00;99.90;;;-141.84;89.60;19389.09;4966917;28;20243;-63
2023/10/31 08:10:20;;;;;;;2.50;1.33;;;13.10;99.90;;;-141.84;89.13;19409.41;4966996;28;20795;-64
2023/10/31 08:12:49;;;;;;;2.55;1.58;;;13.10;99.90;;;-141.84;87.42;19366.75;4966821;28;20247;-64
2023/10/31 08:15:17;;;;;;;1.30;1.20;;;13.10;99.90;;;-141.84;86.19;19299.69;4959574;28;20222;-64
2023/10/31 08:17:45;;;;;;;1.30;1.00;;;13.10;99.90;;;-141.84;83.63;19326.09;4966414;28;20765;-64
2023/10/31 08:20:15;;;;;;;2.70;1.00;;;13.20;99.90;;;-141.84;83.57;19287.50;4966702;28;20236;-65
2023/10/31 08:22:43;;;;;;;1.75;1.05;;;13.10;99.90;;;-141.84;83.24;19315.94;4967004;28;20315;-64
2023/10/31 08:25:12;;;;;;;1.85;0.82;;;13.10;99.90;;;-141.84;82.35;19334.22;4958925;28;20310;-64
2023/10/31 08:27:40;;;;;;;1.83;0.90;;;13.20;99.90;;;-141.84;81.31;19287.50;4966207;28;20208;-64
2023/10/31 08:30:10;;;;;;;1.08;0.75;;;13.30;99.90;;;-141.84;81.96;19305.78;4966458;28;20240;-64
2023/10/31 08:32:38;;;;;;;2.35;1.15;;;13.30;99.90;;;-141.84;82.66;19301.72;4966265;28;20228;-65
2023/10/31 08:35:08;;;;;;;0.98;0.90;;;13.30;99.90;;;-141.84;82.49;19338.28;4958364;28;20319;-64
2023/10/31 08:37:38;;;;;;;1.30;1.05;;;13.30;99.90;;;-141.84;80.23;19313.91;4966516;28;20244;-65
2023/10/31 08:40:08;;;;;;;0.75;0.75;;;13.30;99.90;;;-141.84;80.53;19362.69;4966369;28;20669;-64
2023/10/31 08:42:36;;;;;;;1.15;0.90;;;13.40;99.90;;;-141.84;80.00;19313.91;4966595;28;20247;-64
2023/10/31 08:45:06;;;;;;;0.93;0.80;;;13.40;99.90;;;-141.84;79.29;19350.50;4977971;28;20306;-65
2023/10/31 08:47:34;;;;;;;1.58;0.82;;;13.50;99.90;;;-141.84;77.45;19354.56;4985579;28;20239;-64
2023/10/31 08:50:03;;;;;;;2.15;0.90;;;13.60;99.90;;;-141.84;75.39;19354.56;4985223;28;20221;-64
2023/10/31 08:52:31;;;;;;;1.00;0.90;;;13.60;99.90;;;-141.84;77.67;19360.66;4985527;28;20227;-64
2023/10/31 08:55:01;;;;;;;0.85;0.80;;;13.60;99.90;;;-141.84;76.51;19423.66;4978278;28;20336;-65
2023/10/31 08:57:29;;;;;;;0.70;0.70;;;13.70;99.90;;;-141.84;75.70;19354.56;4985315;28;20289;-64
2023/10/31 08:59:57;;;;;;;0.70;0.55;;;13.70;99.90;;;-141.84;73.88;19393.16;4984476;28;20671;-64
2023/10/31 09:02:25;;;;;;;1.10;0.70;;;13.90;99.90;;;-141.84;74.41;19395.19;4984923;28;20282;-64
2023/10/31 09:04:53;;;;;;;1.75;0.60;;;13.90;99.90;;;-141.84;74.06;19415.50;4978402;28;20271;-63
2023/10/31 09:07:22;;;;;;;0.80;0.63;;;14.10;99.90;;;-141.84;74.84;19395.19;4977643;28;20257;-63
2023/10/31 09:09:50;;;;;;;0.80;0.60;;;13.90;99.90;;;-141.84;74.78;19352.53;4984774;28;20999;-63
2023/10/31 09:12:20;;;;;;;1.83;0.80;;;13.80;99.90;;;-141.84;77.02;19380.97;4982605;28;20644;-64
2023/10/31 09:14:48;;;;;;;1.52;0.65;;;13.70;99.90;;;-141.84;76.83;19368.78;4980388;28;20318;-64
2023/10/31 09:17:16;;;;;;;1.65;0.70;;;13.60;99.90;;;-141.84;79.22;19348.47;4973167;28;20815;-63
2023/10/31 09:19:44;;;;;;;2.97;0.60;;;13.50;99.90;;;-141.84;79.17;19344.41;4983683;28;20227;-63
2023/10/31 09:22:12;;;;;;;1.27;1.08;;;13.40;99.90;;;-141.84;79.12;19342.34;4982698;28;20570;-65
2023/10/31 09:24:41;;;;;;;0.98;0.60;;;13.30;99.90;;;-141.84;81.11;19317.97;4980583;28;20295;-64
2023/10/31 09:27:13;;;;;;;2.60;1.00;;;13.30;99.90;;;-141.84;79.30;19370.81;4973643;28;20223;-63
2023/10/31 09:29:43;;;;;;;0.98;0.60;;;13.30;99.90;;;-141.84;78.27;19370.81;4985106;28;20262;-63
2023/10/31 09:32:11;;;;;;;0.50;0.50;;;13.40;99.90;;;-141.84;77.47;19360.66;4968821;28;20265;-63
2023/10/31 09:34:40;;;;;;;0.45;0.45;;;13.60;99.90;;;-141.84;77.95;19358.63;4978736;28;20234;-63
2023/10/31 09:37:08;;;;;;;0.85;0.50;;;13.70;99.90;;;-141.84;77.80;19378.94;4977881;28;20228;-63
2023/10/31 09:39:36;;;;;;;1.17;0.98;;;13.60;99.90;;;-141.84;78.71;19421.63;4986014;28;20314;-63
2023/10/31 09:42:06;;;;;;;0.50;0.40;;;13.60;99.90;;;-141.84;76.93;19383.00;4984960;28;20231;-63
2023/10/31 09:44:34;;;;;;;0.55;0.50;;;13.70;99.90;;;-141.84;77.24;19383.00;4965760;28;20259;-62
2023/10/31 09:47:05;;;;;;;0.60;0.47;;;13.80;99.90;;;-141.84;75.49;19380.97;4955376;28;20232;-62
2023/10/31 09:49:35;;;;;;;0.50;0.50;;;13.90;99.90;;;-141.84;76.33;19397.22;4964822;28;20730;-63
2023/10/31 09:52:04;;;;;;;0.60;0.55;;;13.90;99.90;;;-141.84;75.66;19397.22;4968050;28;20227;-63
2023/10/31 09:54:32;;;;;;;0.98;0.70;;;13.90;99.90;;;-141.84;75.12;19452.09;4979048;28;20219;-64
2023/10/31 09:57:01;;;;;;;1.58;0.52;;;14.00;99.90;;;-141.84;75.35;19415.50;4964794;28;20227;-62
2023/10/31 09:59:29;;;;;;;1.90;0.70;;;14.00;99.90;;;-141.84;73.89;19391.13;4983860;28;20698;-63